| time (UTC) | temp F | wind direction | speed MPH | gust MPH | rain 1hr in | rain 24hr in | rain mn in | humidity % | barometer mb |
| 20260505201029 | 54 | 158 | 4.0 | 9.0 | 0.00 | 0.00 | 0.00 | 52 | 1011.8 |
| 20260505200531 | 54 | 161 | 4.0 | 12.0 | 0.00 | 0.00 | 0.00 | 53 | 1011.7 |
| 20260505200034 | 54 | 153 | 7.0 | 13.0 | 0.00 | 0.00 | 0.00 | 53 | 1011.7 |
| 20260505195528 | 54 | 131 | 6.0 | 13.0 | 0.00 | 0.00 | 0.00 | 53 | 1011.8 |
| 20260505195027 | 54 | 226 | 6.0 | 14.0 | 0.00 | 0.00 | 0.00 | 53 | 1011.7 |
| 20260505194527 | 54 | 149 | 8.0 | 14.0 | 0.00 | 0.00 | 0.00 | 52 | 1011.7 |
| 20260505194029 | 54 | 140 | 5.0 | 13.0 | 0.00 | 0.00 | 0.00 | 53 | 1011.6 |
| 20260505193527 | 54 | 167 | 5.0 | 13.0 | 0.00 | 0.00 | 0.00 | 52 | 1011.7 |
| 20260505193026 | 54 | 126 | 8.0 | 13.0 | 0.00 | 0.00 | 0.00 | 53 | 1011.6 |
| 20260505192527 | 54 | 135 | 4.0 | 12.0 | 0.00 | 0.00 | 0.00 | 54 | 1011.7 |
| 20260505192026 | 54 | 157 | 6.0 | 15.0 | 0.00 | 0.00 | 0.00 | 54 | 1011.5 |
| 20260505191526 | 54 | 137 | 6.0 | 15.0 | 0.00 | 0.00 | 0.00 | 54 | 1011.5 |
| 20260505191026 | 53 | 128 | 9.0 | 16.0 | 0.00 | 0.00 | 0.00 | 53 | 1011.5 |
| 20260505190526 | 53 | 150 | 8.0 | 16.0 | 0.00 | 0.00 | 0.00 | 54 | 1011.4 |
| 20260505190024 | 53 | 162 | 7.0 | 14.0 | 0.00 | 0.00 | 0.00 | 54 | 1011.5 |
| 20260505185527 | 53 | 153 | 7.0 | 16.0 | 0.00 | 0.00 | 0.00 | 54 | 1011.5 |
| 20260505185025 | 53 | 182 | 8.0 | 17.0 | 0.00 | 0.00 | 0.00 | 54 | 1011.5 |
| 20260505184525 | 54 | 148 | 10.0 | 17.0 | 0.00 | 0.00 | 0.00 | 53 | 1011.5 |
| 20260505184025 | 54 | 227 | 7.0 | 17.0 | 0.00 | 0.00 | 0.00 | 54 | 1011.4 |
| 20260505183523 | 54 | 148 | 10.0 | 17.0 | 0.00 | 0.00 | 0.00 | 54 | 1011.4 |
| 20260505183025 | 54 | 135 | 4.0 | 18.0 | 0.00 | 0.00 | 0.00 | 55 | 1011.4 |
| 20260505182523 | 54 | 122 | 10.0 | 19.0 | 0.00 | 0.00 | 0.00 | 54 | 1011.4 |
| 20260505182022 | 54 | 133 | 8.0 | 18.0 | 0.00 | 0.00 | 0.00 | 56 | 1011.3 |
| 20260505181522 | 53 | 151 | 9.0 | 17.0 | 0.00 | 0.00 | 0.00 | 57 | 1011.2 |
| 20260505181023 | 53 | 98 | 10.0 | 16.0 | 0.00 | 0.00 | 0.00 | 57 | 1011.2 |
| 20260505180522 | 52 | 147 | 7.0 | 15.0 | 0.00 | 0.00 | 0.00 | 58 | 1011.1 |
| 20260505180021 | 52 | 137 | 7.0 | 16.0 | 0.00 | 0.00 | 0.00 | 59 | 1011.3 |
| 20260505175522 | 52 | 124 | 9.0 | 20.0 | 0.00 | 0.00 | 0.00 | 59 | 1011.3 |
| 20260505175022 | 51 | 195 | 10.0 | 20.0 | 0.00 | 0.00 | 0.00 | 59 | 1011.3 |
| 20260505174521 | 51 | 139 | 10.0 | 17.0 | 0.00 | 0.00 | 0.00 | 59 | 1011.3 |
| 20260505174020 | 51 | 181 | 8.0 | 18.0 | 0.00 | 0.00 | 0.00 | 60 | 1011.3 |
| 20260505173519 | 51 | 169 | 8.0 | 17.0 | 0.00 | 0.00 | 0.00 | 61 | 1011.2 |
| 20260505173036 | 51 | 105 | 8.0 | 17.0 | 0.00 | 0.00 | 0.00 | 60 | 1011.2 |
| 20260505172518 | 51 | 132 | 10.0 | 18.0 | 0.00 | 0.00 | 0.00 | 61 | 1011.2 |
| 20260505172017 | 51 | 198 | 8.0 | 18.0 | 0.00 | 0.00 | 0.00 | 61 | 1011.4 |
| 20260505171519 | 51 | 134 | 8.0 | 18.0 | 0.00 | 0.00 | 0.00 | 61 | 1011.3 |
| 20260505171016 | 51 | 124 | 10.0 | 18.0 | 0.00 | 0.00 | 0.00 | 60 | 1011.2 |
| 20260505170516 | 51 | 172 | 7.0 | 16.0 | 0.00 | 0.00 | 0.00 | 60 | 1011.2 |
| 20260505170023 | 51 | 158 | 5.0 | 16.0 | 0.00 | 0.00 | 0.00 | 62 | 1011.1 |
| 20260505165514 | 51 | 141 | 6.0 | 17.0 | 0.00 | 0.00 | 0.00 | 62 | 1011.1 |
| 20260505165014 | 50 | 176 | 4.0 | 18.0 | 0.00 | 0.00 | 0.00 | 63 | 1011.1 |
| 20260505164535 | 50 | 179 | 9.0 | 21.0 | 0.00 | 0.00 | 0.00 | 61 | 1011.1 |
| 20260505164013 | 50 | 129 | 10.0 | 19.0 | 0.00 | 0.00 | 0.00 | 62 | 1011.1 |
| 20260505163513 | 50 | 159 | 8.0 | 20.0 | 0.00 | 0.00 | 0.00 | 63 | 1011.1 |
| 20260505163014 | 50 | 141 | 9.0 | 20.0 | 0.00 | 0.00 | 0.00 | 64 | 1011.0 |
| 20260505162510 | 50 | 146 | 7.0 | 18.0 | 0.00 | 0.00 | 0.00 | 64 | 1011.0 |
| 20260505162009 | 50 | 169 | 8.0 | 16.0 | 0.00 | 0.00 | 0.00 | 64 | 1011.0 |
| 20260505161508 | 51 | 135 | 9.0 | 16.0 | 0.00 | 0.00 | 0.00 | 64 | 1011.0 |
| 20260505161009 | 51 | 146 | 9.0 | 16.0 | 0.00 | 0.00 | 0.00 | 64 | 1011.0 |
| 20260505160506 | 51 | 160 | 5.0 | 13.0 | 0.00 | 0.00 | 0.00 | 64 | 1011.0 |
| 20260505153116 | 52 | 119 | 7.0 | 20.0 | 0.00 | 0.00 | 0.00 | 57 | 1010.6 |
| 20260505152558 | 52 | 176 | 8.0 | 20.0 | 0.00 | 0.00 | 0.00 | 56 | 1010.4 |
| 20260505152057 | 52 | 158 | 8.0 | 17.0 | 0.00 | 0.00 | 0.00 | 56 | 1010.3 |
| 20260505151604 | 52 | 182 | 5.0 | 14.0 | 0.00 | 0.00 | 0.00 | 56 | 1010.3 |
| 20260505151057 | 52 | 164 | 4.0 | 14.0 | 0.00 | 0.00 | 0.00 | 56 | 1010.3 |
| 20260505150559 | 52 | 145 | 6.0 | 14.0 | 0.00 | 0.00 | 0.00 | 56 | 1010.4 |
| 20260505140548 | 52 | 156 | 10.0 | 17.0 | 0.00 | 0.00 | 0.00 | 56 | 1010.0 |
| 20260505125038 | 54 | 172 | 2.0 | 11.0 | 0.00 | 0.00 | 0.00 | 63 | 1008.9 |
| 20260505124537 | 54 | 139 | 3.0 | 11.0 | 0.00 | 0.00 | 0.00 | 63 | 1008.8 |
| 20260505124034 | 54 | 144 | 5.0 | 14.0 | 0.00 | 0.00 | 0.00 | 63 | 1008.7 |
| 20260505123535 | 54 | 148 | 7.0 | 14.0 | 0.00 | 0.00 | 0.00 | 64 | 1008.6 |
| 20260505123033 | 54 | 165 | 4.0 | 10.0 | 0.00 | 0.00 | 0.00 | 65 | 1008.5 |
| 20260505122537 | 54 | 133 | 3.0 | 14.0 | 0.00 | 0.00 | 0.00 | 67 | 1008.4 |
| 20260505122037 | 54 | 159 | 6.0 | 14.0 | 0.00 | 0.00 | 0.00 | 66 | 1008.4 |
| 20260505121536 | 53 | 203 | 3.0 | 10.0 | 0.00 | 0.00 | 0.00 | 67 | 1008.4 |
| 20260505121031 | 54 | 141 | 3.0 | 10.0 | 0.00 | 0.00 | 0.00 | 68 | 1008.4 |
| 20260505120531 | 54 | 150 | 3.0 | 11.0 | 0.00 | 0.00 | 0.00 | 69 | 1008.5 |
| 20260505120030 | 54 | 164 | 3.0 | 12.0 | 0.00 | 0.00 | 0.00 | 70 | 1008.5 |
| 20260505115530 | 54 | 141 | 6.0 | 12.0 | 0.00 | 0.00 | 0.00 | 71 | 1008.6 |
| 20260505115030 | 54 | 156 | 4.0 | 10.0 | 0.00 | 0.00 | 0.00 | 72 | 1008.5 |
| 20260505114534 | 53 | 118 | 5.0 | 9.0 | 0.00 | 0.00 | 0.00 | 73 | 1008.5 |
| 20260505114027 | 53 | 226 | 3.0 | 8.0 | 0.00 | 0.00 | 0.00 | 72 | 1008.6 |
| 20260505113525 | 53 | 214 | 2.0 | 8.0 | 0.00 | 0.00 | 0.00 | 71 | 1008.6 |
| 20260505113025 | 53 | 212 | 2.0 | 8.0 | 0.00 | 0.00 | 0.00 | 70 | 1008.7 |
| 20260505112525 | 53 | 215 | 4.0 | 8.0 | 0.00 | 0.00 | 0.00 | 68 | 1008.6 |
| 20260505112025 | 53 | 213 | 3.0 | 7.0 | 0.00 | 0.00 | 0.00 | 68 | 1008.7 |
| 20260505111528 | 53 | 225 | 1.0 | 5.0 | 0.00 | 0.00 | 0.00 | 68 | 1008.7 |
| 20260505111023 | 53 | 214 | 1.0 | 7.0 | 0.00 | 0.00 | 0.00 | 68 | 1008.7 |
| 20260505110522 | 53 | 220 | 2.0 | 7.0 | 0.00 | 0.00 | 0.00 | 67 | 1008.7 |
| 20260505102015 | 55 | 231 | 1.0 | 4.0 | 0.00 | 0.00 | 0.00 | 59 | 1008.5 |
| 20260505101515 | 55 | 236 | 1.0 | 3.0 | 0.00 | 0.00 | 0.00 | 59 | 1008.5 |
| 20260505101014 | 55 | 236 | 2.0 | 4.0 | 0.00 | 0.00 | 0.00 | 59 | 1008.5 |
| 20260505100514 | 55 | 274 | 0.0 | 4.0 | 0.00 | 0.00 | 0.00 | 59 | 1008.4 |
| 20260505100013 | 55 | 220 | 1.0 | 4.0 | 0.00 | 0.00 | 0.00 | 59 | 1008.6 |
| 20260505095512 | 55 | 208 | 1.0 | 4.0 | 0.00 | 0.00 | 0.00 | 59 | 1008.6 |
| 20260505095012 | 55 | 221 | 1.0 | 4.0 | 0.00 | 0.00 | 0.00 | 59 | 1008.6 |
| 20260505094512 | 55 | 240 | 1.0 | 5.0 | 0.00 | 0.00 | 0.00 | 59 | 1008.6 |
| 20260505094017 | 55 | 219 | 1.0 | 6.0 | 0.00 | 0.00 | 0.00 | 59 | 1008.6 |
| 20260505093513 | 55 | 231 | 1.0 | 6.0 | 0.00 | 0.00 | 0.00 | 60 | 1008.6 |
| 20260505093012 | 55 | 186 | 1.0 | 4.0 | 0.00 | 0.00 | 0.00 | 60 | 1008.5 |
| 20260505092512 | 55 | 214 | 0.0 | 7.0 | 0.00 | 0.00 | 0.00 | 62 | 1008.5 |
| 20260505092012 | 55 | 235 | 1.0 | 7.0 | 0.00 | 0.00 | 0.00 | 61 | 1008.5 |
| 20260505091511 | 55 | 202 | 2.0 | 7.0 | 0.00 | 0.00 | 0.00 | 61 | 1008.5 |
| 20260505091011 | 55 | 163 | 3.0 | 7.0 | 0.00 | 0.00 | 0.00 | 61 | 1008.5 |
| 20260505090509 | 55 | 172 | 1.0 | 7.0 | 0.00 | 0.00 | 0.00 | 60 | 1008.5 |
| 20260505090009 | 56 | 132 | 2.0 | 7.0 | 0.00 | 0.00 | 0.00 | 60 | 1008.6 |
| 20260505085512 | 55 | 192 | 3.0 | 7.0 | 0.00 | 0.00 | 0.00 | 60 | 1008.6 |
| 20260505085008 | 55 | 173 | 3.0 | 9.0 | 0.00 | 0.00 | 0.00 | 61 | 1008.7 |
| 20260505084508 | 55 | 153 | 1.0 | 5.0 | 0.00 | 0.00 | 0.00 | 61 | 1008.7 |
| 20260505084008 | 55 | 156 | 3.0 | 7.0 | 0.00 | 0.00 | 0.00 | 62 | 1008.7 |
| 20260505083511 | 55 | 154 | 3.0 | 7.0 | 0.00 | 0.00 | 0.00 | 62 | 1008.8 |
| 20260505083007 | 55 | 190 | 1.0 | 6.0 | 0.00 | 0.00 | 0.00 | 62 | 1008.8 |
| 20260505082507 | 55 | 139 | 2.0 | 6.0 | 0.00 | 0.00 | 0.00 | 62 | 1008.9 |
| 20260505082007 | 55 | 229 | 1.0 | 5.0 | 0.00 | 0.00 | 0.00 | 62 | 1008.9 |
| 20260505081507 | 55 | 150 | 1.0 | 6.0 | 0.00 | 0.00 | 0.00 | 62 | 1009.0 |
| 20260505081008 | 55 | 140 | 2.0 | 9.0 | 0.00 | 0.00 | 0.00 | 62 | 1009.1 |
| 20260505080506 | 55 | 158 | 2.0 | 11.0 | 0.00 | 0.00 | 0.00 | 61 | 1009.0 |
| 20260505080005 | 55 | 159 | 4.0 | 11.0 | 0.00 | 0.00 | 0.00 | 61 | 1009.0 |
| 20260505075505 | 55 | 193 | 2.0 | 9.0 | 0.00 | 0.00 | 0.00 | 60 | 1009.1 |
| 20260505075005 | 56 | 160 | 4.0 | 15.0 | 0.00 | 0.00 | 0.00 | 60 | 1009.0 |
| 20260505074504 | 56 | 183 | 8.0 | 15.0 | 0.00 | 0.00 | 0.00 | 59 | 1009.0 |
| 20260505074003 | 56 | 218 | 8.0 | 17.0 | 0.00 | 0.00 | 0.00 | 58 | 1009.0 |
| 20260505073503 | 56 | 166 | 7.0 | 17.0 | 0.00 | 0.00 | 0.00 | 57 | 1008.9 |
| 20260505073004 | 56 | 143 | 9.0 | 18.0 | 0.00 | 0.00 | 0.00 | 57 | 1008.9 |
| 20260505072502 | 56 | 136 | 8.0 | 18.0 | 0.00 | 0.00 | 0.00 | 56 | 1008.9 |
| 20260505072001 | 56 | 165 | 7.0 | 14.0 | 0.00 | 0.00 | 0.00 | 56 | 1008.8 |
| 20260505071501 | 56 | 150 | 5.0 | 14.0 | 0.00 | 0.00 | 0.00 | 55 | 1008.7 |
| 20260505071100 | 56 | 140 | 7.0 | 16.0 | 0.00 | 0.00 | 0.00 | 55 | 1008.7 |
| 20260505070559 | 56 | 146 | 8.0 | 20.0 | 0.00 | 0.00 | 0.00 | 54 | 1008.7 |
| 20260505070058 | 56 | 141 | 8.0 | 18.0 | 0.00 | 0.00 | 0.00 | 55 | 1008.7 |
| 20260505065557 | 55 | 170 | 7.0 | 17.0 | 0.00 | 0.00 | 0.00 | 55 | 1008.7 |
| 20260505065057 | 55 | 198 | 7.0 | 15.0 | 0.00 | 0.00 | 0.00 | 56 | 1008.7 |
| 20260505064556 | 55 | 150 | 8.0 | 16.0 | 0.00 | 0.00 | 0.00 | 56 | 1008.8 |
| 20260505064056 | 55 | 129 | 8.0 | 17.0 | 0.00 | 0.00 | 0.00 | 56 | 1008.8 |
| 20260505063554 | 55 | 144 | 7.0 | 17.0 | 0.00 | 0.00 | 0.00 | 57 | 1008.7 |
| 20260505063058 | 55 | 160 | 7.0 | 17.0 | 0.00 | 0.00 | 0.00 | 57 | 1008.7 |
| 20260505062554 | 55 | 149 | 5.0 | 16.0 | 0.00 | 0.00 | 0.00 | 58 | 1008.7 |
| 20260505062052 | 55 | 147 | 6.0 | 17.0 | 0.00 | 0.00 | 0.00 | 59 | 1008.7 |
| 20260505061618 | 55 | 159 | 9.0 | 18.0 | 0.00 | 0.00 | 0.00 | 59 | 1008.7 |
| 20260505061051 | 55 | 198 | 6.0 | 18.0 | 0.00 | 0.00 | 0.00 | 59 | 1008.7 |
| 20260505060556 | 55 | 150 | 8.0 | 18.0 | 0.00 | 0.00 | 0.00 | 59 | 1008.7 |
| 20260505060052 | 56 | 155 | 6.0 | 17.0 | 0.00 | 0.00 | 0.00 | 59 | 1008.7 |
| 20260505055548 | 56 | 231 | 5.0 | 16.0 | 0.00 | 0.00 | 0.00 | 59 | 1008.8 |
| 20260505055051 | 56 | 137 | 8.0 | 20.0 | 0.00 | 0.00 | 0.00 | 58 | 1008.8 |
| 20260505054559 | 56 | 162 | 8.0 | 20.0 | 0.00 | 0.00 | 0.00 | 57 | 1008.8 |
| 20260505054047 | 56 | 160 | 8.0 | 16.0 | 0.00 | 0.00 | 0.00 | 57 | 1008.8 |
| 20260505053547 | 57 | 176 | 8.0 | 18.0 | 0.00 | 0.00 | 0.00 | 58 | 1008.8 |
| 20260505053046 | 57 | 169 | 11.0 | 21.0 | 0.00 | 0.00 | 0.00 | 57 | 1008.7 |
| 20260505052545 | 57 | 133 | 9.0 | 21.0 | 0.00 | 0.00 | 0.00 | 57 | 1008.6 |
| 20260505052045 | 57 | 147 | 8.0 | 19.0 | 0.00 | 0.00 | 0.00 | 58 | 1008.6 |
| 20260505051545 | 57 | 147 | 10.0 | 19.0 | 0.00 | 0.00 | 0.00 | 57 | 1008.6 |
| 20260505051045 | 57 | 148 | 11.0 | 20.0 | 0.00 | 0.00 | 0.00 | 57 | 1008.5 |
| 20260505050545 | 58 | 142 | 11.0 | 23.0 | 0.00 | 0.00 | 0.00 | 56 | 1008.4 |
| 20260505041541 | 61 | 174 | 8.0 | 16.0 | 0.00 | 0.00 | 0.00 | 41 | 1007.4 |
| 20260505041041 | 61 | 127 | 6.0 | 13.0 | 0.00 | 0.00 | 0.00 | 41 | 1007.4 |
| 20260505040541 | 61 | 168 | 4.0 | 11.0 | 0.00 | 0.00 | 0.00 | 41 | 1007.3 |
| 20260505040041 | 61 | 155 | 3.0 | 12.0 | 0.00 | 0.00 | 0.00 | 41 | 1007.2 |
| 20260505035541 | 61 | 157 | 5.0 | 12.0 | 0.00 | 0.00 | 0.00 | 41 | 1007.2 |
| 20260505035040 | 61 | 186 | 4.0 | 10.0 | 0.00 | 0.00 | 0.00 | 42 | 1007.2 |
| 20260505034543 | 61 | 89 | 4.0 | 10.0 | 0.00 | 0.00 | 0.00 | 43 | 1007.1 |
| 20260505034040 | 61 | 169 | 3.0 | 8.0 | 0.00 | 0.00 | 0.00 | 44 | 1007.0 |
| 20260505033539 | 61 | 143 | 3.0 | 11.0 | 0.00 | 0.00 | 0.00 | 45 | 1007.0 |
| 20260505033047 | 62 | 203 | 5.0 | 11.0 | 0.00 | 0.00 | 0.00 | 44 | 1007.0 |
| 20260505032538 | 62 | 140 | 5.0 | 11.0 | 0.00 | 0.00 | 0.00 | 43 | 1006.9 |
| 20260505032041 | 62 | 155 | 5.0 | 13.0 | 0.00 | 0.00 | 0.00 | 43 | 1006.9 |
| 20260505031538 | 62 | 270 | 5.0 | 13.0 | 0.00 | 0.00 | 0.00 | 42 | 1006.8 |
| 20260505031038 | 62 | 256 | 4.0 | 13.0 | 0.00 | 0.00 | 0.00 | 41 | 1006.7 |
| 20260505030541 | 63 | 213 | 5.0 | 10.0 | 0.00 | 0.00 | 0.00 | 41 | 1006.7 |
| 20260505030037 | 63 | 159 | 4.0 | 11.0 | 0.00 | 0.00 | 0.00 | 40 | 1006.6 |
| 20260505025538 | 63 | 255 | 5.0 | 11.0 | 0.00 | 0.00 | 0.00 | 40 | 1006.6 |
| 20260505025036 | 63 | 245 | 3.0 | 11.0 | 0.00 | 0.00 | 0.00 | 41 | 1006.5 |
| 20260505024601 | 63 | 143 | 3.0 | 13.0 | 0.00 | 0.00 | 0.00 | 41 | 1006.5 |
| 20260505024040 | 63 | 200 | 6.0 | 13.0 | 0.00 | 0.00 | 0.00 | 41 | 1006.4 |
| 20260505023536 | 64 | 157 | 5.0 | 12.0 | 0.00 | 0.00 | 0.00 | 40 | 1006.3 |
| 20260505023040 | 64 | 158 | 5.0 | 12.0 | 0.00 | 0.00 | 0.00 | 39 | 1006.2 |
| 20260505022536 | 64 | 176 | 4.0 | 11.0 | 0.00 | 0.00 | 0.00 | 37 | 1006.2 |
| 20260505022036 | 64 | 190 | 4.0 | 10.0 | 0.00 | 0.00 | 0.00 | 37 | 1006.2 |
| 20260505021546 | 64 | 111 | 5.0 | 13.0 | 0.00 | 0.00 | 0.00 | 37 | 1006.2 |
| 20260505021035 | 65 | 139 | 7.0 | 12.0 | 0.00 | 0.00 | 0.00 | 37 | 1006.2 |
| 20260505020535 | 65 | 170 | 5.0 | 16.0 | 0.00 | 0.00 | 0.00 | 37 | 1006.1 |
| 20260505020041 | 65 | 115 | 9.0 | 18.0 | 0.00 | 0.00 | 0.00 | 37 | 1006.0 |
| 20260505015534 | 65 | 160 | 8.0 | 18.0 | 0.00 | 0.00 | 0.00 | 36 | 1006.0 |
| 20260505015034 | 65 | 167 | 9.0 | 16.0 | 0.00 | 0.00 | 0.00 | 36 | 1006.0 |
| 20260505014534 | 66 | 172 | 7.0 | 13.0 | 0.00 | 0.00 | 0.00 | 35 | 1006.1 |
| 20260505014033 | 67 | 176 | 6.0 | 13.0 | 0.00 | 0.00 | 0.00 | 33 | 1006.0 |
| 20260505013535 | 67 | 186 | 0.0 | 4.0 | 0.00 | 0.00 | 0.00 | 31 | 1006.0 |
| 20260505013034 | 67 | 221 | 0.0 | 4.0 | 0.00 | 0.00 | 0.00 | 31 | 1006.0 |
| 20260505012532 | 67 | 200 | 0.0 | 4.0 | 0.00 | 0.00 | 0.00 | 31 | 1006.0 |
| 20260505012032 | 67 | 209 | 1.0 | 5.0 | 0.00 | 0.00 | 0.00 | 31 | 1006.0 |
| 20260505011544 | 68 | 151 | 1.0 | 5.0 | 0.00 | 0.00 | 0.00 | 31 | 1005.9 |
| 20260505011032 | 68 | 158 | 0.0 | 4.0 | 0.00 | 0.00 | 0.00 | 31 | 1006.0 |
| 20260505010532 | 68 | 164 | 2.0 | 6.0 | 0.00 | 0.00 | 0.00 | 31 | 1006.1 |
| 20260505010030 | 68 | 154 | 2.0 | 6.0 | 0.00 | 0.00 | 0.00 | 31 | 1006.1 |
| 20260505005530 | 68 | 242 | 0.0 | 1.0 | 0.00 | 0.00 | 0.00 | 33 | 1006.1 |
| 20260505005029 | 67 | 238 | 0.0 | 1.0 | 0.00 | 0.00 | 0.00 | 33 | 1006.2 |
| 20260505004538 | 67 | 1 | 0.0 | 1.0 | 0.00 | 0.00 | 0.00 | 34 | 1006.2 |
| 20260505004029 | 67 | 8 | 0.0 | 6.0 | 0.00 | 0.00 | 0.00 | 33 | 1006.2 |
| 20260505003528 | 67 | 40 | 2.0 | 6.0 | 0.00 | 0.00 | 0.00 | 33 | 1006.2 |
| 20260505003028 | 67 | 30 | 3.0 | 6.0 | 0.00 | 0.00 | 0.00 | 33 | 1006.3 |
| 20260505002528 | 67 | 41 | 1.0 | 4.0 | 0.00 | 0.00 | 0.00 | 33 | 1006.3 |
| 20260505002128 | 67 | 90 | 1.0 | 4.0 | 0.00 | 0.00 | 0.00 | 33 | 1006.3 |
| 20260505001527 | 67 | 86 | 1.0 | 6.0 | 0.00 | 0.00 | 0.00 | 33 | 1006.4 |
| 20260505001026 | 67 | 92 | 2.0 | 7.0 | 0.00 | 0.00 | 0.00 | 33 | 1006.4 |
| 20260505000526 | 67 | 82 | 4.0 | 9.0 | 0.00 | 0.00 | 0.00 | 32 | 1006.4 |
| 20260505000025 | 67 | 78 | 3.0 | 9.0 | 0.00 | 0.00 | 0.00 | 31 | 1006.4 |
| 20260504235525 | 67 | 72 | 5.0 | 12.0 | 0.00 | 0.00 | 0.00 | 32 | 1006.4 |
| 20260504235025 | 67 | 356 | 4.0 | 12.0 | 0.00 | 0.00 | 0.00 | 32 | 1006.5 |
| 20260504234523 | 67 | 60 | 2.0 | 8.0 | 0.00 | 0.00 | 0.00 | 33 | 1006.5 |
| 20260504234023 | 67 | 125 | 3.0 | 8.0 | 0.00 | 0.00 | 0.00 | 33 | 1006.7 |
| 20260504233523 | 67 | 88 | 3.0 | 7.0 | 0.00 | 0.00 | 0.00 | 32 | 1006.7 |
| 20260504233023 | 68 | 134 | 2.0 | 7.0 | 0.00 | 0.00 | 0.00 | 32 | 1006.8 |
| 20260504232523 | 68 | 107 | 4.0 | 8.0 | 0.00 | 0.00 | 0.00 | 31 | 1006.9 |
| 20260504232022 | 68 | 91 | 3.0 | 13.0 | 0.00 | 0.00 | 0.00 | 31 | 1006.8 |
| 20260504231522 | 68 | 64 | 6.0 | 13.0 | 0.00 | 0.00 | 0.00 | 30 | 1006.8 |
| 20260504231022 | 68 | 62 | 5.0 | 13.0 | 0.00 | 0.00 | 0.00 | 30 | 1006.7 |
| 20260504230522 | 68 | 66 | 6.0 | 13.0 | 0.00 | 0.00 | 0.00 | 30 | 1006.6 |
| 20260504230021 | 68 | 88 | 6.0 | 13.0 | 0.00 | 0.00 | 0.00 | 31 | 1006.7 |
| 20260504225522 | 69 | 65 | 8.0 | 13.0 | 0.00 | 0.00 | 0.00 | 31 | 1006.8 |
| 20260504225020 | 68 | 64 | 8.0 | 15.0 | 0.00 | 0.00 | 0.00 | 31 | 1006.8 |
| 20260504224522 | 68 | 113 | 9.0 | 17.0 | 0.00 | 0.00 | 0.00 | 31 | 1006.8 |
| 20260504224020 | 69 | 23 | 8.0 | 17.0 | 0.00 | 0.00 | 0.00 | 30 | 1006.8 |
| 20260504223520 | 70 | 15 | 7.0 | 13.0 | 0.00 | 0.00 | 0.00 | 30 | 1006.7 |
| 20260504223020 | 70 | 51 | 6.0 | 12.0 | 0.00 | 0.00 | 0.00 | 29 | 1006.7 |
| 20260504222519 | 70 | 82 | 4.0 | 9.0 | 0.00 | 0.00 | 0.00 | 28 | 1006.8 |
| 20260504222019 | 70 | 354 | 3.0 | 9.0 | 0.00 | 0.00 | 0.00 | 27 | 1006.6 |
| 20260504221519 | 70 | 335 | 3.0 | 11.0 | 0.00 | 0.00 | 0.00 | 28 | 1006.7 |
| 20260504221019 | 70 | 236 | 3.0 | 11.0 | 0.00 | 0.00 | 0.00 | 29 | 1006.6 |
| 20260504220522 | 69 | 298 | 1.0 | 9.0 | 0.00 | 0.00 | 0.00 | 30 | 1006.6 |
| 20260504220022 | 69 | 231 | 4.0 | 9.0 | 0.00 | 0.00 | 0.00 | 29 | 1006.7 |
| 20260504215517 | 68 | 214 | 3.0 | 12.0 | 0.00 | 0.00 | 0.00 | 30 | 1006.7 |
| 20260504215016 | 67 | 269 | 6.0 | 14.0 | 0.00 | 0.00 | 0.00 | 30 | 1006.8 |
| 20260504214517 | 67 | 248 | 6.0 | 14.0 | 0.00 | 0.00 | 0.00 | 31 | 1006.8 |
| 20260504214017 | 67 | 224 | 8.0 | 13.0 | 0.00 | 0.00 | 0.00 | 32 | 1006.9 |
| 20260504213517 | 67 | 263 | 5.0 | 14.0 | 0.00 | 0.00 | 0.00 | 32 | 1006.9 |
| 20260504213018 | 67 | 266 | 6.0 | 15.0 | 0.00 | 0.00 | 0.00 | 32 | 1006.9 |
| 20260504212516 | 67 | 190 | 7.0 | 15.0 | 0.00 | 0.00 | 0.00 | 31 | 1006.9 |
| 20260504212015 | 68 | 248 | 7.0 | 13.0 | 0.00 | 0.00 | 0.00 | 30 | 1006.9 |
| 20260504211516 | 68 | 243 | 5.0 | 14.0 | 0.00 | 0.00 | 0.00 | 27 | 1006.9 |
| 20260504211015 | 68 | 269 | 5.0 | 14.0 | 0.00 | 0.00 | 0.00 | 27 | 1006.8 |
| 20260504210519 | 68 | 240 | 7.0 | 12.0 | 0.00 | 0.00 | 0.00 | 26 | 1006.9 |
| 20260504210014 | 68 | 282 | 5.0 | 13.0 | 0.00 | 0.00 | 0.00 | 27 | 1006.9 |
| 20260504205517 | 68 | 243 | 6.0 | 15.0 | 0.00 | 0.00 | 0.00 | 27 | 1007.0 |
| 20260504205013 | 69 | 293 | 10.0 | 16.0 | 0.00 | 0.00 | 0.00 | 27 | 1006.9 |
| 20260504204517 | 69 | 273 | 8.0 | 16.0 | 0.00 | 0.00 | 0.00 | 27 | 1007.0 |
| 20260504204013 | 69 | 259 | 6.0 | 11.0 | 0.00 | 0.00 | 0.00 | 29 | 1007.0 |
| 20260504203513 | 69 | 283 | 5.0 | 14.0 | 0.00 | 0.00 | 0.00 | 28 | 1007.0 |
| 20260504203016 | 69 | 271 | 9.0 | 14.0 | 0.00 | 0.00 | 0.00 | 28 | 1007.0 |
| 20260504202514 | 70 | 191 | 6.0 | 12.0 | 0.00 | 0.00 | 0.00 | 29 | 1007.0 |
| 20260504202013 | 71 | 169 | 2.0 | 7.0 | 0.00 | 0.00 | 0.00 | 30 | 1007.0 |
| 20260504201511 | 70 | 243 | 0.0 | 7.0 | 0.00 | 0.00 | 0.00 | 28 | 1007.0 |